sensor_id;sensor_type;location;lat;lon;timestamp;temperature;humidity
44111;DHT22;29774;52.664;5.074;2023-04-25T00:02:03;6.00;82.60
44111;DHT22;29774;52.664;5.074;2023-04-25T00:04:28;5.90;82.90
44111;DHT22;29774;52.664;5.074;2023-04-25T00:06:55;5.90;83.20
44111;DHT22;29774;52.664;5.074;2023-04-25T00:09:21;5.90;83.30
44111;DHT22;29774;52.664;5.074;2023-04-25T00:11:47;5.90;83.30
44111;DHT22;29774;52.664;5.074;2023-04-25T00:14:13;5.90;83.20
44111;DHT22;29774;52.664;5.074;2023-04-25T00:16:38;5.90;83.00
44111;DHT22;29774;52.664;5.074;2023-04-25T00:19:06;6.00;82.60
44111;DHT22;29774;52.664;5.074;2023-04-25T00:21:32;6.00;82.40
44111;DHT22;29774;52.664;5.074;2023-04-25T00:23:59;6.00;82.40
44111;DHT22;29774;52.664;5.074;2023-04-25T00:26:25;6.00;82.30
44111;DHT22;29774;52.664;5.074;2023-04-25T00:28:51;6.00;82.30
44111;DHT22;29774;52.664;5.074;2023-04-25T00:31:16;6.00;82.20
44111;DHT22;29774;52.664;5.074;2023-04-25T00:33:42;5.90;82.60
44111;DHT22;29774;52.664;5.074;2023-04-25T00:36:08;6.00;82.90
44111;DHT22;29774;52.664;5.074;2023-04-25T00:38:34;6.00;83.00
44111;DHT22;29774;52.664;5.074;2023-04-25T00:41:00;6.00;82.90
44111;DHT22;29774;52.664;5.074;2023-04-25T00:43:30;6.00;83.00
44111;DHT22;29774;52.664;5.074;2023-04-25T00:45:57;5.80;82.90
44111;DHT22;29774;52.664;5.074;2023-04-25T00:48:24;5.80;82.90
44111;DHT22;29774;52.664;5.074;2023-04-25T00:50:55;5.70;82.60
44111;DHT22;29774;52.664;5.074;2023-04-25T00:53:22;5.60;82.70
44111;DHT22;29774;52.664;5.074;2023-04-25T00:55:48;5.40;82.50
44111;DHT22;29774;52.664;5.074;2023-04-25T00:58:16;5.40;82.70
44111;DHT22;29774;52.664;5.074;2023-04-25T01:00:42;5.30;82.70
44111;DHT22;29774;52.664;5.074;2023-04-25T01:03:09;5.20;82.90
44111;DHT22;29774;52.664;5.074;2023-04-25T01:05:35;5.20;83.10
44111;DHT22;29774;52.664;5.074;2023-04-25T01:08:01;5.20;83.40
44111;DHT22;29774;52.664;5.074;2023-04-25T01:10:27;5.10;83.40
44111;DHT22;29774;52.664;5.074;2023-04-25T01:12:52;5.10;83.80
44111;DHT22;29774;52.664;5.074;2023-04-25T01:15:18;5.00;83.80
44111;DHT22;29774;52.664;5.074;2023-04-25T01:17:44;5.00;83.80
44111;DHT22;29774;52.664;5.074;2023-04-25T01:20:11;4.90;83.80
44111;DHT22;29774;52.664;5.074;2023-04-25T01:22:37;4.90;83.60
44111;DHT22;29774;52.664;5.074;2023-04-25T01:25:03;4.90;83.60
44111;DHT22;29774;52.664;5.074;2023-04-25T01:27:30;4.80;83.30
44111;DHT22;29774;52.664;5.074;2023-04-25T01:29:56;4.70;83.00
44111;DHT22;29774;52.664;5.074;2023-04-25T01:32:22;4.60;83.20
44111;DHT22;29774;52.664;5.074;2023-04-25T01:34:48;4.60;83.20
44111;DHT22;29774;52.664;5.074;2023-04-25T01:37:14;4.50;83.10
44111;DHT22;29774;52.664;5.074;2023-04-25T01:39:41;4.50;83.20
44111;DHT22;29774;52.664;5.074;2023-04-25T01:42:07;4.40;83.20
44111;DHT22;29774;52.664;5.074;2023-04-25T01:44:33;4.40;83.40
44111;DHT22;29774;52.664;5.074;2023-04-25T01:46:58;4.40;83.80
44111;DHT22;29774;52.664;5.074;2023-04-25T01:49:24;4.50;84.10
44111;DHT22;29774;52.664;5.074;2023-04-25T01:51:50;4.60;84.50
44111;DHT22;29774;52.664;5.074;2023-04-25T01:54:15;4.60;84.90
44111;DHT22;29774;52.664;5.074;2023-04-25T01:56:42;4.50;84.80
44111;DHT22;29774;52.664;5.074;2023-04-25T01:59:07;4.60;84.90
44111;DHT22;29774;52.664;5.074;2023-04-25T02:01:33;4.60;84.90
44111;DHT22;29774;52.664;5.074;2023-04-25T02:03:59;4.60;84.70
44111;DHT22;29774;52.664;5.074;2023-04-25T02:06:25;4.50;84.60
44111;DHT22;29774;52.664;5.074;2023-04-25T02:08:50;4.50;84.50
44111;DHT22;29774;52.664;5.074;2023-04-25T02:11:16;4.50;85.10
44111;DHT22;29774;52.664;5.074;2023-04-25T02:13:41;4.60;85.10
44111;DHT22;29774;52.664;5.074;2023-04-25T02:16:07;4.70;85.30
44111;DHT22;29774;52.664;5.074;2023-04-25T02:18:33;4.60;85.30
44111;DHT22;29774;52.664;5.074;2023-04-25T02:20:59;4.60;85.40
44111;DHT22;29774;52.664;5.074;2023-04-25T02:23:26;4.60;85.60
44111;DHT22;29774;52.664;5.074;2023-04-25T02:25:52;4.60;85.80
44111;DHT22;29774;52.664;5.074;2023-04-25T02:28:18;4.70;85.80
44111;DHT22;29774;52.664;5.074;2023-04-25T02:30:43;4.70;86.10
44111;DHT22;29774;52.664;5.074;2023-04-25T02:33:09;5.70;86.30
44111;DHT22;29774;52.664;5.074;2023-04-25T02:35:35;6.10;85.30
44111;DHT22;29774;52.664;5.074;2023-04-25T02:38:01;6.20;84.10
44111;DHT22;29774;52.664;5.074;2023-04-25T02:40:26;6.00;83.10
44111;DHT22;29774;52.664;5.074;2023-04-25T02:42:52;6.10;83.60
44111;DHT22;29774;52.664;5.074;2023-04-25T02:45:18;6.20;82.60
44111;DHT22;29774;52.664;5.074;2023-04-25T02:47:43;6.10;82.20
44111;DHT22;29774;52.664;5.074;2023-04-25T02:50:09;6.10;81.20
44111;DHT22;29774;52.664;5.074;2023-04-25T02:52:35;5.70;80.50
44111;DHT22;29774;52.664;5.074;2023-04-25T02:55:00;5.50;80.30
44111;DHT22;29774;52.664;5.074;2023-04-25T02:57:26;5.30;80.30
44111;DHT22;29774;52.664;5.074;2023-04-25T02:59:51;5.20;80.90
44111;DHT22;29774;52.664;5.074;2023-04-25T03:02:17;5.20;81.30
44111;DHT22;29774;52.664;5.074;2023-04-25T03:04:43;5.20;81.70
44111;DHT22;29774;52.664;5.074;2023-04-25T03:07:08;5.20;82.00
44111;DHT22;29774;52.664;5.074;2023-04-25T03:09:34;5.20;82.40
44111;DHT22;29774;52.664;5.074;2023-04-25T03:12:00;5.20;82.40
44111;DHT22;29774;52.664;5.074;2023-04-25T03:14:26;5.20;82.50
44111;DHT22;29774;52.664;5.074;2023-04-25T03:16:52;5.20;82.80
44111;DHT22;29774;52.664;5.074;2023-04-25T03:19:18;5.20;83.00
44111;DHT22;29774;52.664;5.074;2023-04-25T03:21:44;5.30;83.40
44111;DHT22;29774;52.664;5.074;2023-04-25T03:24:09;5.30;83.50
44111;DHT22;29774;52.664;5.074;2023-04-25T03:26:36;5.30;83.90
44111;DHT22;29774;52.664;5.074;2023-04-25T03:29:02;5.20;84.10
44111;DHT22;29774;52.664;5.074;2023-04-25T03:31:27;5.20;84.40
44111;DHT22;29774;52.664;5.074;2023-04-25T03:33:53;5.30;84.60
44111;DHT22;29774;52.664;5.074;2023-04-25T03:36:19;5.20;84.60
44111;DHT22;29774;52.664;5.074;2023-04-25T03:38:44;5.20;84.90
44111;DHT22;29774;52.664;5.074;2023-04-25T03:41:10;5.20;85.10
44111;DHT22;29774;52.664;5.074;2023-04-25T03:43:36;5.10;85.10
44111;DHT22;29774;52.664;5.074;2023-04-25T03:46:01;5.10;85.40
44111;DHT22;29774;52.664;5.074;2023-04-25T03:48:27;5.10;85.40
44111;DHT22;29774;52.664;5.074;2023-04-25T03:50:53;5.10;85.60
44111;DHT22;29774;52.664;5.074;2023-04-25T03:53:19;5.10;85.70
44111;DHT22;29774;52.664;5.074;2023-04-25T03:55:45;5.10;85.80
44111;DHT22;29774;52.664;5.074;2023-04-25T03:58:11;5.10;85.80
44111;DHT22;29774;52.664;5.074;2023-04-25T04:00:37;5.10;85.70
44111;DHT22;29774;52.664;5.074;2023-04-25T04:03:02;5.10;85.70
44111;DHT22;29774;52.664;5.074;2023-04-25T04:05:28;5.10;85.60
44111;DHT22;29774;52.664;5.074;2023-04-25T04:07:54;5.10;85.70
44111;DHT22;29774;52.664;5.074;2023-04-25T04:10:20;5.10;85.70
44111;DHT22;29774;52.664;5.074;2023-04-25T04:12:46;5.10;85.70
44111;DHT22;29774;52.664;5.074;2023-04-25T04:15:12;5.00;85.70
44111;DHT22;29774;52.664;5.074;2023-04-25T04:17:37;5.10;85.60
44111;DHT22;29774;52.664;5.074;2023-04-25T04:20:04;5.00;85.40
44111;DHT22;29774;52.664;5.074;2023-04-25T04:22:29;4.90;85.10
44111;DHT22;29774;52.664;5.074;2023-04-25T04:24:55;4.80;84.90
44111;DHT22;29774;52.664;5.074;2023-04-25T04:27:22;4.70;84.70
44111;DHT22;29774;52.664;5.074;2023-04-25T04:29:48;4.60;84.50
44111;DHT22;29774;52.664;5.074;2023-04-25T04:32:15;4.50;84.50
44111;DHT22;29774;52.664;5.074;2023-04-25T04:34:41;4.40;84.70
44111;DHT22;29774;52.664;5.074;2023-04-25T04:37:07;4.50;85.10
44111;DHT22;29774;52.664;5.074;2023-04-25T04:39:33;4.50;85.50
44111;DHT22;29774;52.664;5.074;2023-04-25T04:41:59;4.60;85.80
44111;DHT22;29774;52.664;5.074;2023-04-25T04:44:27;4.60;86.20
44111;DHT22;29774;52.664;5.074;2023-04-25T04:46:53;4.60;86.50
44111;DHT22;29774;52.664;5.074;2023-04-25T04:49:19;4.70;86.90
44111;DHT22;29774;52.664;5.074;2023-04-25T04:51:45;4.80;87.10
44111;DHT22;29774;52.664;5.074;2023-04-25T04:54:10;4.80;87.30
44111;DHT22;29774;52.664;5.074;2023-04-25T04:56:36;4.90;87.40
44111;DHT22;29774;52.664;5.074;2023-04-25T04:59:01;4.90;87.40
44111;DHT22;29774;52.664;5.074;2023-04-25T05:01:28;5.00;87.20
44111;DHT22;29774;52.664;5.074;2023-04-25T05:03:56;5.00;86.80
44111;DHT22;29774;52.664;5.074;2023-04-25T05:06:26;4.90;86.40
44111;DHT22;29774;52.664;5.074;2023-04-25T05:08:52;5.00;86.10
44111;DHT22;29774;52.664;5.074;2023-04-25T05:11:18;5.00;85.90
44111;DHT22;29774;52.664;5.074;2023-04-25T05:13:44;5.00;85.80
44111;DHT22;29774;52.664;5.074;2023-04-25T05:16:11;5.00;85.80
44111;DHT22;29774;52.664;5.074;2023-04-25T05:18:36;5.00;85.90
44111;DHT22;29774;52.664;5.074;2023-04-25T05:21:02;5.00;86.00
44111;DHT22;29774;52.664;5.074;2023-04-25T05:23:28;5.00;85.90
44111;DHT22;29774;52.664;5.074;2023-04-25T05:25:55;5.00;85.90
44111;DHT22;29774;52.664;5.074;2023-04-25T05:28:21;5.10;85.70
44111;DHT22;29774;52.664;5.074;2023-04-25T05:30:47;5.00;85.70
44111;DHT22;29774;52.664;5.074;2023-04-25T05:33:12;5.10;86.00
44111;DHT22;29774;52.664;5.074;2023-04-25T05:35:38;5.20;86.10
44111;DHT22;29774;52.664;5.074;2023-04-25T05:38:04;5.40;86.00
44111;DHT22;29774;52.664;5.074;2023-04-25T05:40:29;5.50;86.10
44111;DHT22;29774;52.664;5.074;2023-04-25T05:42:55;5.60;85.90
44111;DHT22;29774;52.664;5.074;2023-04-25T05:45:20;5.70;85.40
44111;DHT22;29774;52.664;5.074;2023-04-25T05:47:46;5.70;85.00
44111;DHT22;29774;52.664;5.074;2023-04-25T05:50:11;5.80;84.90
44111;DHT22;29774;52.664;5.074;2023-04-25T05:52:37;5.90;84.80
44111;DHT22;29774;52.664;5.074;2023-04-25T05:55:03;6.10;84.70
44111;DHT22;29774;52.664;5.074;2023-04-25T05:57:29;6.10;84.90
44111;DHT22;29774;52.664;5.074;2023-04-25T05:59:55;6.30;84.50
44111;DHT22;29774;52.664;5.074;2023-04-25T06:02:21;6.40;84.30
44111;DHT22;29774;52.664;5.074;2023-04-25T06:04:48;6.40;83.70
44111;DHT22;29774;52.664;5.074;2023-04-25T06:07:14;6.40;83.20
44111;DHT22;29774;52.664;5.074;2023-04-25T06:09:40;6.50;82.90
44111;DHT22;29774;52.664;5.074;2023-04-25T06:12:06;6.50;82.80
44111;DHT22;29774;52.664;5.074;2023-04-25T06:14:33;6.70;83.30
44111;DHT22;29774;52.664;5.074;2023-04-25T06:16:58;6.90;82.80
44111;DHT22;29774;52.664;5.074;2023-04-25T06:19:24;7.10;81.60
44111;DHT22;29774;52.664;5.074;2023-04-25T06:21:50;7.30;80.90
44111;DHT22;29774;52.664;5.074;2023-04-25T06:24:15;7.40;80.60
44111;DHT22;29774;52.664;5.074;2023-04-25T06:26:41;7.70;79.70
44111;DHT22;29774;52.664;5.074;2023-04-25T06:29:06;8.00;78.80
44111;DHT22;29774;52.664;5.074;2023-04-25T06:31:32;8.20;78.60
44111;DHT22;29774;52.664;5.074;2023-04-25T06:33:59;8.30;77.40
44111;DHT22;29774;52.664;5.074;2023-04-25T06:36:24;8.70;77.10
44111;DHT22;29774;52.664;5.074;2023-04-25T06:38:51;8.80;75.70
44111;DHT22;29774;52.664;5.074;2023-04-25T06:41:18;8.90;75.40
44111;DHT22;29774;52.664;5.074;2023-04-25T06:43:44;8.70;74.00
44111;DHT22;29774;52.664;5.074;2023-04-25T06:46:09;8.40;72.50
44111;DHT22;29774;52.664;5.074;2023-04-25T06:48:35;8.10;72.50
44111;DHT22;29774;52.664;5.074;2023-04-25T06:51:01;7.70;72.30
44111;DHT22;29774;52.664;5.074;2023-04-25T06:53:26;7.60;73.40
44111;DHT22;29774;52.664;5.074;2023-04-25T06:55:52;7.70;74.30
44111;DHT22;29774;52.664;5.074;2023-04-25T06:58:18;7.80;74.00
44111;DHT22;29774;52.664;5.074;2023-04-25T07:00:44;8.10;73.90
44111;DHT22;29774;52.664;5.074;2023-04-25T07:03:09;8.30;73.70
44111;DHT22;29774;52.664;5.074;2023-04-25T07:05:35;8.50;73.90
44111;DHT22;29774;52.664;5.074;2023-04-25T07:08:01;8.70;73.10
44111;DHT22;29774;52.664;5.074;2023-04-25T07:10:27;9.20;75.00
44111;DHT22;29774;52.664;5.074;2023-04-25T07:12:53;9.40;73.70
44111;DHT22;29774;52.664;5.074;2023-04-25T07:15:19;9.70;75.00
44111;DHT22;29774;52.664;5.074;2023-04-25T07:17:44;10.10;74.00
44111;DHT22;29774;52.664;5.074;2023-04-25T07:20:10;10.20;73.60
44111;DHT22;29774;52.664;5.074;2023-04-25T07:22:36;10.20;70.40
44111;DHT22;29774;52.664;5.074;2023-04-25T07:25:01;10.30;70.90
44111;DHT22;29774;52.664;5.074;2023-04-25T07:27:27;10.30;70.10
44111;DHT22;29774;52.664;5.074;2023-04-25T07:29:53;10.20;69.50
44111;DHT22;29774;52.664;5.074;2023-04-25T07:32:19;10.20;70.80
44111;DHT22;29774;52.664;5.074;2023-04-25T07:34:45;10.40;72.50
44111;DHT22;29774;52.664;5.074;2023-04-25T07:37:10;10.30;69.40
44111;DHT22;29774;52.664;5.074;2023-04-25T07:39:36;10.30;69.40
44111;DHT22;29774;52.664;5.074;2023-04-25T07:42:02;10.40;69.50
44111;DHT22;29774;52.664;5.074;2023-04-25T07:44:29;10.60;71.40
44111;DHT22;29774;52.664;5.074;2023-04-25T07:46:56;10.70;70.50
44111;DHT22;29774;52.664;5.074;2023-04-25T07:49:21;10.70;69.30
44111;DHT22;29774;52.664;5.074;2023-04-25T07:51:47;10.80;69.60
44111;DHT22;29774;52.664;5.074;2023-04-25T07:54:14;10.90;72.00
44111;DHT22;29774;52.664;5.074;2023-04-25T07:56:40;11.20;71.80
44111;DHT22;29774;52.664;5.074;2023-04-25T07:59:06;11.20;71.80
44111;DHT22;29774;52.664;5.074;2023-04-25T08:01:31;11.20;72.50
44111;DHT22;29774;52.664;5.074;2023-04-25T08:03:57;11.40;70.90
44111;DHT22;29774;52.664;5.074;2023-04-25T08:06:22;11.50;70.40
44111;DHT22;29774;52.664;5.074;2023-04-25T08:08:48;11.60;70.50
44111;DHT22;29774;52.664;5.074;2023-04-25T08:11:14;11.50;70.00
44111;DHT22;29774;52.664;5.074;2023-04-25T08:13:39;11.30;66.90
44111;DHT22;29774;52.664;5.074;2023-04-25T08:16:05;11.10;66.50
44111;DHT22;29774;52.664;5.074;2023-04-25T08:18:30;11.10;68.30
44111;DHT22;29774;52.664;5.074;2023-04-25T08:20:56;11.00;67.90
44111;DHT22;29774;52.664;5.074;2023-04-25T08:23:22;10.90;67.40
44111;DHT22;29774;52.664;5.074;2023-04-25T08:25:48;10.80;67.80
44111;DHT22;29774;52.664;5.074;2023-04-25T08:28:14;11.00;69.80
44111;DHT22;29774;52.664;5.074;2023-04-25T08:30:40;11.10;68.20
44111;DHT22;29774;52.664;5.074;2023-04-25T08:33:06;11.00;68.10
44111;DHT22;29774;52.664;5.074;2023-04-25T08:35:31;11.10;69.60
44111;DHT22;29774;52.664;5.074;2023-04-25T08:37:58;11.00;70.60
44111;DHT22;29774;52.664;5.074;2023-04-25T08:40:27;11.10;70.90
44111;DHT22;29774;52.664;5.074;2023-04-25T08:42:56;10.80;67.80
44111;DHT22;29774;52.664;5.074;2023-04-25T08:45:22;10.40;67.00
44111;DHT22;29774;52.664;5.074;2023-04-25T08:47:51;10.40;67.70
44111;DHT22;29774;52.664;5.074;2023-04-25T08:50:17;10.30;68.70
44111;DHT22;29774;52.664;5.074;2023-04-25T08:52:45;10.50;69.90
44111;DHT22;29774;52.664;5.074;2023-04-25T08:55:15;10.40;67.90
44111;DHT22;29774;52.664;5.074;2023-04-25T08:57:42;10.40;69.50
44111;DHT22;29774;52.664;5.074;2023-04-25T09:00:11;10.60;69.90
44111;DHT22;29774;52.664;5.074;2023-04-25T09:02:39;10.80;70.30
44111;DHT22;29774;52.664;5.074;2023-04-25T09:05:05;11.00;69.80
44111;DHT22;29774;52.664;5.074;2023-04-25T09:07:32;11.20;70.00
44111;DHT22;29774;52.664;5.074;2023-04-25T09:09:58;11.40;69.40
44111;DHT22;29774;52.664;5.074;2023-04-25T09:12:27;11.60;65.40
44111;DHT22;29774;52.664;5.074;2023-04-25T09:15:09;11.70;66.60
44111;DHT22;29774;52.664;5.074;2023-04-25T09:17:35;11.70;65.50
44111;DHT22;29774;52.664;5.074;2023-04-25T09:20:14;11.70;66.00
44111;DHT22;29774;52.664;5.074;2023-04-25T09:22:40;11.70;65.80
44111;DHT22;29774;52.664;5.074;2023-04-25T09:25:11;11.80;68.70
44111;DHT22;29774;52.664;5.074;2023-04-25T09:27:49;11.80;66.20
44111;DHT22;29774;52.664;5.074;2023-04-25T09:30:16;11.70;61.10
44111;DHT22;29774;52.664;5.074;2023-04-25T09:32:43;11.80;64.40
44111;DHT22;29774;52.664;5.074;2023-04-25T09:35:09;11.90;65.80
44111;DHT22;29774;52.664;5.074;2023-04-25T09:37:35;11.70;63.80
44111;DHT22;29774;52.664;5.074;2023-04-25T09:40:03;11.50;61.40
44111;DHT22;29774;52.664;5.074;2023-04-25T09:42:31;11.60;64.00
44111;DHT22;29774;52.664;5.074;2023-04-25T09:44:58;11.70;65.70
44111;DHT22;29774;52.664;5.074;2023-04-25T09:47:25;11.80;63.30
44111;DHT22;29774;52.664;5.074;2023-04-25T09:49:54;12.00;64.30
44111;DHT22;29774;52.664;5.074;2023-04-25T09:52:22;12.10;59.60
44111;DHT22;29774;52.664;5.074;2023-04-25T09:54:49;12.20;61.70
44111;DHT22;29774;52.664;5.074;2023-04-25T09:57:22;12.10;60.10
44111;DHT22;29774;52.664;5.074;2023-04-25T09:59:55;12.10;60.70
44111;DHT22;29774;52.664;5.074;2023-04-25T10:02:25;12.20;59.00
44111;DHT22;29774;52.664;5.074;2023-04-25T10:04:53;12.10;59.40
44111;DHT22;29774;52.664;5.074;2023-04-25T10:07:22;12.20;60.30
44111;DHT22;29774;52.664;5.074;2023-04-25T10:09:58;12.20;65.00
44111;DHT22;29774;52.664;5.074;2023-04-25T10:12:26;12.30;61.80
44111;DHT22;29774;52.664;5.074;2023-04-25T10:14:52;12.40;57.80
44111;DHT22;29774;52.664;5.074;2023-04-25T10:17:18;12.50;57.20
44111;DHT22;29774;52.664;5.074;2023-04-25T10:19:47;12.50;57.60
44111;DHT22;29774;52.664;5.074;2023-04-25T10:22:36;12.50;58.50
44111;DHT22;29774;52.664;5.074;2023-04-25T10:25:03;12.50;62.00
44111;DHT22;29774;52.664;5.074;2023-04-25T10:27:30;12.50;62.30
44111;DHT22;29774;52.664;5.074;2023-04-25T10:30:08;12.60;64.10
44111;DHT22;29774;52.664;5.074;2023-04-25T10:32:36;12.70;57.00
44111;DHT22;29774;52.664;5.074;2023-04-25T10:35:15;12.70;61.50
44111;DHT22;29774;52.664;5.074;2023-04-25T10:38:03;12.80;60.20
44111;DHT22;29774;52.664;5.074;2023-04-25T10:40:30;12.80;61.60
44111;DHT22;29774;52.664;5.074;2023-04-25T10:48:51;12.70;61.10
44111;DHT22;29774;52.664;5.074;2023-04-25T10:51:19;12.50;62.70
44111;DHT22;29774;52.664;5.074;2023-04-25T10:53:46;12.30;60.70
44111;DHT22;29774;52.664;5.074;2023-04-25T10:56:20;12.20;60.80
44111;DHT22;29774;52.664;5.074;2023-04-25T10:58:47;12.10;60.40
44111;DHT22;29774;52.664;5.074;2023-04-25T11:01:14;12.00;57.60
44111;DHT22;29774;52.664;5.074;2023-04-25T11:03:43;11.90;57.70
44111;DHT22;29774;52.664;5.074;2023-04-25T11:06:29;12.00;60.20
44111;DHT22;29774;52.664;5.074;2023-04-25T11:08:57;12.20;63.80
44111;DHT22;29774;52.664;5.074;2023-04-25T11:11:22;12.30;64.00
44111;DHT22;29774;52.664;5.074;2023-04-25T11:13:50;12.40;61.60
44111;DHT22;29774;52.664;5.074;2023-04-25T11:16:16;12.40;63.40
44111;DHT22;29774;52.664;5.074;2023-04-25T11:18:43;12.60;62.70
44111;DHT22;29774;52.664;5.074;2023-04-25T11:21:09;12.60;62.20
44111;DHT22;29774;52.664;5.074;2023-04-25T11:23:35;12.40;61.80
44111;DHT22;29774;52.664;5.074;2023-04-25T11:26:05;12.20;61.80
44111;DHT22;29774;52.664;5.074;2023-04-25T11:28:31;11.90;63.80
44111;DHT22;29774;52.664;5.074;2023-04-25T11:30:56;11.70;63.40
44111;DHT22;29774;52.664;5.074;2023-04-25T11:33:25;11.20;63.00
44111;DHT22;29774;52.664;5.074;2023-04-25T11:35:55;11.00;65.90
44111;DHT22;29774;52.664;5.074;2023-04-25T11:38:25;10.90;65.50
44111;DHT22;29774;52.664;5.074;2023-04-25T11:40:52;11.00;65.00
44111;DHT22;29774;52.664;5.074;2023-04-25T11:43:20;11.20;65.80
44111;DHT22;29774;52.664;5.074;2023-04-25T11:45:51;11.50;65.20
44111;DHT22;29774;52.664;5.074;2023-04-25T11:48:18;11.70;65.10
44111;DHT22;29774;52.664;5.074;2023-04-25T11:50:43;11.90;66.10
44111;DHT22;29774;52.664;5.074;2023-04-25T11:53:09;11.90;60.50
44111;DHT22;29774;52.664;5.074;2023-04-25T11:55:36;11.90;62.10
44111;DHT22;29774;52.664;5.074;2023-04-25T11:58:03;11.90;65.00
44111;DHT22;29774;52.664;5.074;2023-04-25T12:00:29;12.10;65.60
44111;DHT22;29774;52.664;5.074;2023-04-25T12:02:56;12.20;62.10
44111;DHT22;29774;52.664;5.074;2023-04-25T12:05:29;12.30;62.10
44111;DHT22;29774;52.664;5.074;2023-04-25T12:07:55;12.40;59.90
44111;DHT22;29774;52.664;5.074;2023-04-25T12:10:21;12.40;62.20
44111;DHT22;29774;52.664;5.074;2023-04-25T12:12:49;12.40;60.80
44111;DHT22;29774;52.664;5.074;2023-04-25T12:15:15;12.30;59.60
44111;DHT22;29774;52.664;5.074;2023-04-25T12:17:48;12.20;58.80
44111;DHT22;29774;52.664;5.074;2023-04-25T12:20:16;12.20;61.80
44111;DHT22;29774;52.664;5.074;2023-04-25T12:22:44;12.30;64.20
44111;DHT22;29774;52.664;5.074;2023-04-25T12:25:41;12.30;64.70
44111;DHT22;29774;52.664;5.074;2023-04-25T12:28:22;12.40;63.80
44111;DHT22;29774;52.664;5.074;2023-04-25T12:30:54;12.40;65.10
44111;DHT22;29774;52.664;5.074;2023-04-25T12:33:21;12.30;63.60
44111;DHT22;29774;52.664;5.074;2023-04-25T12:35:47;12.30;65.10
44111;DHT22;29774;52.664;5.074;2023-04-25T12:40:49;12.60;56.00
44111;DHT22;29774;52.664;5.074;2023-04-25T12:43:14;12.50;55.80
44111;DHT22;29774;52.664;5.074;2023-04-25T12:45:40;12.60;55.10
44111;DHT22;29774;52.664;5.074;2023-04-25T12:48:06;12.60;52.90
44111;DHT22;29774;52.664;5.074;2023-04-25T12:50:31;12.60;59.00
44111;DHT22;29774;52.664;5.074;2023-04-25T12:52:57;12.50;60.30
44111;DHT22;29774;52.664;5.074;2023-04-25T12:55:23;12.60;59.30
44111;DHT22;29774;52.664;5.074;2023-04-25T12:57:48;12.70;62.90
44111;DHT22;29774;52.664;5.074;2023-04-25T13:00:14;12.70;61.50
44111;DHT22;29774;52.664;5.074;2023-04-25T13:02:40;12.70;63.20
44111;DHT22;29774;52.664;5.074;2023-04-25T13:05:06;12.80;60.80
44111;DHT22;29774;52.664;5.074;2023-04-25T13:07:32;12.80;57.00
44111;DHT22;29774;52.664;5.074;2023-04-25T13:09:58;12.90;52.00
44111;DHT22;29774;52.664;5.074;2023-04-25T13:12:24;12.80;61.70
44111;DHT22;29774;52.664;5.074;2023-04-25T13:14:49;12.70;61.60
44111;DHT22;29774;52.664;5.074;2023-04-25T13:17:15;12.70;57.20
44111;DHT22;29774;52.664;5.074;2023-04-25T13:19:41;12.60;58.40
44111;DHT22;29774;52.664;5.074;2023-04-25T13:22:06;12.60;60.70
44111;DHT22;29774;52.664;5.074;2023-04-25T13:24:32;12.40;56.50
44111;DHT22;29774;52.664;5.074;2023-04-25T13:26:57;12.40;57.70
44111;DHT22;29774;52.664;5.074;2023-04-25T13:29:23;12.30;59.40
44111;DHT22;29774;52.664;5.074;2023-04-25T13:31:49;12.20;60.50
44111;DHT22;29774;52.664;5.074;2023-04-25T13:34:14;12.20;55.70
44111;DHT22;29774;52.664;5.074;2023-04-25T13:36:40;12.20;56.20
44111;DHT22;29774;52.664;5.074;2023-04-25T13:39:06;12.20;58.60
44111;DHT22;29774;52.664;5.074;2023-04-25T13:41:31;12.30;60.70
44111;DHT22;29774;52.664;5.074;2023-04-25T13:43:57;12.30;60.10
44111;DHT22;29774;52.664;5.074;2023-04-25T13:46:23;12.10;59.40
44111;DHT22;29774;52.664;5.074;2023-04-25T13:48:48;12.00;56.50
44111;DHT22;29774;52.664;5.074;2023-04-25T13:51:15;11.90;55.30
44111;DHT22;29774;52.664;5.074;2023-04-25T13:53:43;11.90;59.50
44111;DHT22;29774;52.664;5.074;2023-04-25T13:56:09;11.80;56.30
44111;DHT22;29774;52.664;5.074;2023-04-25T13:58:37;11.80;58.40
44111;DHT22;29774;52.664;5.074;2023-04-25T14:01:02;11.80;58.80
44111;DHT22;29774;52.664;5.074;2023-04-25T14:03:29;11.80;58.90
44111;DHT22;29774;52.664;5.074;2023-04-25T14:05:55;11.80;60.90
44111;DHT22;29774;52.664;5.074;2023-04-25T14:08:21;11.90;60.10
44111;DHT22;29774;52.664;5.074;2023-04-25T14:10:46;11.80;58.30
44111;DHT22;29774;52.664;5.074;2023-04-25T14:13:12;11.80;60.70
44111;DHT22;29774;52.664;5.074;2023-04-25T14:15:37;11.70;57.30
44111;DHT22;29774;52.664;5.074;2023-04-25T14:18:03;11.70;57.10
44111;DHT22;29774;52.664;5.074;2023-04-25T14:20:29;11.50;57.30
44111;DHT22;29774;52.664;5.074;2023-04-25T14:22:55;11.40;58.80
44111;DHT22;29774;52.664;5.074;2023-04-25T14:25:22;11.30;59.50
44111;DHT22;29774;52.664;5.074;2023-04-25T14:27:48;11.30;59.40
44111;DHT22;29774;52.664;5.074;2023-04-25T14:30:19;11.30;59.60
44111;DHT22;29774;52.664;5.074;2023-04-25T14:32:45;11.40;60.40
44111;DHT22;29774;52.664;5.074;2023-04-25T14:35:11;11.30;59.80
44111;DHT22;29774;52.664;5.074;2023-04-25T14:37:37;11.40;60.80
44111;DHT22;29774;52.664;5.074;2023-04-25T14:40:03;11.50;62.80
44111;DHT22;29774;52.664;5.074;2023-04-25T14:42:30;11.40;60.90
44111;DHT22;29774;52.664;5.074;2023-04-25T14:44:55;11.30;60.20
44111;DHT22;29774;52.664;5.074;2023-04-25T14:47:21;11.20;61.20
44111;DHT22;29774;52.664;5.074;2023-04-25T14:49:47;11.10;60.30
44111;DHT22;29774;52.664;5.074;2023-04-25T14:52:19;11.10;61.80
44111;DHT22;29774;52.664;5.074;2023-04-25T14:54:46;11.00;60.20
44111;DHT22;29774;52.664;5.074;2023-04-25T14:57:12;10.80;58.90
44111;DHT22;29774;52.664;5.074;2023-04-25T14:59:38;10.80;61.80
44111;DHT22;29774;52.664;5.074;2023-04-25T15:02:04;10.70;60.10
44111;DHT22;29774;52.664;5.074;2023-04-25T15:04:30;10.70;59.60
44111;DHT22;29774;52.664;5.074;2023-04-25T15:06:55;10.80;61.20
44111;DHT22;29774;52.664;5.074;2023-04-25T15:09:21;10.80;58.60
44111;DHT22;29774;52.664;5.074;2023-04-25T15:11:48;10.80;57.40
44111;DHT22;29774;52.664;5.074;2023-04-25T15:14:14;11.00;59.30
44111;DHT22;29774;52.664;5.074;2023-04-25T15:16:39;10.90;55.50
44111;DHT22;29774;52.664;5.074;2023-04-25T15:19:05;10.80;57.70
44111;DHT22;29774;52.664;5.074;2023-04-25T15:21:31;10.70;58.00
44111;DHT22;29774;52.664;5.074;2023-04-25T15:23:57;11.00;59.90
44111;DHT22;29774;52.664;5.074;2023-04-25T15:26:22;11.10;61.10
44111;DHT22;29774;52.664;5.074;2023-04-25T15:28:48;11.10;59.70
44111;DHT22;29774;52.664;5.074;2023-04-25T15:31:14;11.10;55.40
44111;DHT22;29774;52.664;5.074;2023-04-25T15:33:40;11.10;59.60
44111;DHT22;29774;52.664;5.074;2023-04-25T15:36:06;11.20;59.90
44111;DHT22;29774;52.664;5.074;2023-04-25T15:38:32;11.20;60.60
44111;DHT22;29774;52.664;5.074;2023-04-25T15:40:57;11.30;57.00
44111;DHT22;29774;52.664;5.074;2023-04-25T15:43:23;11.10;56.70